Time,TemperatureF,DewpointF,PressureIn,WindDirection,WindDirectionDegrees,WindSpeedMPH,WindSpeedGustMPH,Humidity,HourlyPrecipIn,Conditions,Clouds,dailyrainin,SoftwareType,DateUTC
2013-09-27 00:10:00,55.3,51.0,30.12,NNE,12,0.0,2.0,84,0.00,,,0.00,weatherlink.com 1.10,2013-09-27 04:10:00,
2013-09-27 00:25:00,55.2,51.0,30.13,NE,34,0.0,1.0,85,0.00,,,0.00,weatherlink.com 1.10,2013-09-27 04:25:00,
2013-09-27 00:40:00,55.1,51.0,30.12,NNE,22,0.0,2.0,85,0.00,,,0.00,weatherlink.com 1.10,2013-09-27 04:40:00,
2013-09-27 00:55:00,55.1,51.0,30.13,North,350,0.0,2.0,85,0.00,,,0.00,weatherlink.com 1.10,2013-09-27 04:55:00,
2013-09-27 01:10:00,55.0,51.0,30.12,NNE,20,0.0,3.0,85,0.00,,,0.00,weatherlink.com 1.10,2013-09-27 05:10:00,
2013-09-27 01:25:00,55.0,51.0,30.13,NE,42,0.0,2.0,85,0.00,,,0.00,weatherlink.com 1.10,2013-09-27 05:25:00,
2013-09-27 01:40:00,54.9,51.0,30.13,North,1,0.0,2.0,86,0.00,,,0.00,weatherlink.com 1.10,2013-09-27 05:40:00,
2013-09-27 01:55:00,54.7,51.0,30.13,North,1,0.0,0.0,86,0.00,,,0.00,weatherlink.com 1.10,2013-09-27 05:55:00,
2013-09-27 02:10:00,54.6,51.0,30.13,NNE,26,0.0,2.0,86,0.00,,,0.00,weatherlink.com 1.10,2013-09-27 06:10:00,
2013-09-27 02:25:00,54.6,51.0,30.13,NE,55,0.0,2.0,86,0.00,,,0.00,weatherlink.com 1.10,2013-09-27 06:25:00,
2013-09-27 02:40:00,54.5,51.0,30.13,North,356,0.0,0.0,87,0.00,,,0.00,weatherlink.com 1.10,2013-09-27 06:40:00,
2013-09-27 02:55:00,54.4,51.0,30.13,North,356,0.0,0.0,87,0.00,,,0.00,weatherlink.com 1.10,2013-09-27 06:55:00,
2013-09-27 03:10:00,54.2,51.0,30.13,NNE,18,0.0,0.0,88,0.00,,,0.00,weatherlink.com 1.10,2013-09-27 07:10:00,
2013-09-27 03:25:00,54.3,51.0,30.13,NNE,18,0.0,1.0,88,0.00,,,0.00,weatherlink.com 1.10,2013-09-27 07:25:00,
2013-09-27 03:40:00,54.2,51.0,30.13,NNE,19,0.0,0.0,88,0.00,,,0.00,weatherlink.com 1.10,2013-09-27 07:40:00,
2013-09-27 03:55:00,54.2,51.0,30.13,NNE,19,0.0,0.0,88,0.00,,,0.00,weatherlink.com 1.10,2013-09-27 07:55:00,
2013-09-27 04:10:00,54.2,51.0,30.13,North,4,0.0,0.0,88,0.00,,,0.00,weatherlink.com 1.10,2013-09-27 08:10:00,
2013-09-27 04:25:00,54.2,51.0,30.14,North,349,0.0,2.0,88,0.00,,,0.00,weatherlink.com 1.10,2013-09-27 08:25:00,
2013-09-27 04:40:00,54.2,51.0,30.14,NNE,19,0.0,1.0,89,0.00,,,0.00,weatherlink.com 1.10,2013-09-27 08:40:00,
2013-09-27 04:55:00,54.1,51.0,30.15,NNE,20,0.0,1.0,89,0.00,,,0.00,weatherlink.com 1.10,2013-09-27 08:55:00,
2013-09-27 05:10:00,54.0,51.0,30.15,NE,46,2.0,2.0,89,0.00,,,0.00,weatherlink.com 1.10,2013-09-27 09:10:00,
2013-09-27 05:25:00,54.1,51.0,30.16,NNE,24,0.0,2.0,89,0.00,,,0.00,weatherlink.com 1.10,2013-09-27 09:25:00,
2013-09-27 05:40:00,54.0,51.0,30.16,NNE,25,0.0,1.0,89,0.00,,,0.00,weatherlink.com 1.10,2013-09-27 09:40:00,
2013-09-27 05:55:00,54.0,51.0,30.16,NNE,27,0.0,1.0,89,0.00,,,0.00,weatherlink.com 1.10,2013-09-27 09:55:00,
2013-09-27 06:10:00,53.9,51.0,30.17,NE,49,0.0,1.0,89,0.00,,,0.00,weatherlink.com 1.10,2013-09-27 10:10:00,
2013-09-27 06:25:00,54.0,51.0,30.17,ENE,72,0.0,2.0,89,0.00,,,0.00,weatherlink.com 1.10,2013-09-27 10:25:00,
2013-09-27 06:40:00,54.0,51.0,30.18,ENE,58,0.0,2.0,89,0.00,,,0.00,weatherlink.com 1.10,2013-09-27 10:40:00,
2013-09-27 06:55:00,54.1,51.0,30.18,ENE,73,1.0,1.0,89,0.00,,,0.00,weatherlink.com 1.10,2013-09-27 10:55:00,
2013-09-27 07:10:00,54.3,51.0,30.18,NNE,33,1.0,2.0,89,0.00,,,0.00,weatherlink.com 1.10,2013-09-27 11:10:00,
2013-09-27 07:25:00,54.6,52.0,30.19,NNW,347,1.0,2.0,89,0.00,,,0.00,weatherlink.com 1.10,2013-09-27 11:25:00,
2013-09-27 07:40:00,55.1,52.0,30.19,North,6,0.0,2.0,88,0.00,,,0.00,weatherlink.com 1.10,2013-09-27 11:40:00,
2013-09-27 07:56:00,55.5,52.0,30.20,North,356,1.0,3.0,87,0.00,,,0.00,weatherlink.com 1.10,2013-09-27 11:56:00,
2013-09-27 08:11:00,56.1,52.0,30.20,NNE,32,0.0,4.0,87,0.00,,,0.00,weatherlink.com 1.10,2013-09-27 12:11:00,
2013-09-27 08:26:00,56.6,53.0,30.20,NNE,14,1.0,4.0,87,0.00,,,0.00,weatherlink.com 1.10,2013-09-27 12:26:00,
2013-09-27 08:41:00,57.1,53.0,30.21,NE,50,2.0,3.0,85,0.00,,,0.00,weatherlink.com 1.10,2013-09-27 12:41:00,
2013-09-27 08:56:00,57.8,53.0,30.21,WNW,288,1.0,3.0,84,0.00,,,0.00,weatherlink.com 1.10,2013-09-27 12:56:00,
2013-09-27 09:11:00,58.8,54.0,30.21,ESE,114,1.0,3.0,83,0.00,,,0.00,weatherlink.com 1.10,2013-09-27 13:11:00,
2013-09-27 09:26:00,59.7,54.0,30.21,East,79,2.0,5.0,80,0.00,,,0.00,weatherlink.com 1.10,2013-09-27 13:26:00,
2013-09-27 09:41:00,60.1,54.0,30.21,NE,44,3.0,6.0,79,0.00,,,0.00,weatherlink.com 1.10,2013-09-27 13:41:00,
2013-09-27 09:56:00,61.2,54.0,30.21,NE,54,0.0,4.0,78,0.00,,,0.00,weatherlink.com 1.10,2013-09-27 13:56:00,
2013-09-27 10:11:00,62.0,54.0,30.21,NE,52,3.0,9.0,75,0.00,,,0.00,weatherlink.com 1.10,2013-09-27 14:11:00,
2013-09-27 10:26:00,62.4,54.0,30.21,NNE,28,3.0,7.0,74,0.00,,,0.00,weatherlink.com 1.10,2013-09-27 14:26:00,
2013-09-27 10:41:00,61.8,53.0,30.21,ENE,63,2.0,8.0,74,0.00,,,0.00,weatherlink.com 1.10,2013-09-27 14:41:00,
2013-09-27 10:56:00,63.7,55.0,30.21,ENE,74,3.0,6.0,72,0.00,,,0.00,weatherlink.com 1.10,2013-09-27 14:56:00,
2013-09-27 11:11:00,63.2,54.0,30.21,East,84,1.0,7.0,72,0.00,,,0.00,weatherlink.com 1.10,2013-09-27 15:11:00,
2013-09-27 11:26:00,65.2,54.0,30.21,NNE,13,6.0,7.0,68,0.00,,,0.00,weatherlink.com 1.10,2013-09-27 15:26:00,
2013-09-27 11:41:00,63.6,54.0,30.21,NE,49,3.0,7.0,71,0.00,,,0.00,weatherlink.com 1.10,2013-09-27 15:41:00,
2013-09-27 11:56:00,63.4,55.0,30.21,ENE,66,2.0,5.0,73,0.00,,,0.00,weatherlink.com 1.10,2013-09-27 15:56:00,
2013-09-27 12:11:00,65.4,55.0,30.21,NW,311,2.0,8.0,70,0.00,,,0.00,weatherlink.com 1.10,2013-09-27 16:11:00,
2013-09-27 12:26:00,64.6,54.0,30.21,ENE,64,5.0,7.0,69,0.00,,,0.00,weatherlink.com 1.10,2013-09-27 16:26:00,
2013-09-27 12:41:00,65.9,56.0,30.20,NE,56,5.0,5.0,70,0.00,,,0.00,weatherlink.com 1.10,2013-09-27 16:41:00,
2013-09-27 13:11:00,67.9,56.0,30.19,ENE,69,2.0,4.0,66,0.00,,,0.00,weatherlink.com 1.10,2013-09-27 17:11:00,
2013-09-27 13:26:00,67.5,55.0,30.19,East,86,0.0,5.0,64,0.00,,,0.00,weatherlink.com 1.10,2013-09-27 17:26:00,
2013-09-27 13:41:00,66.3,55.0,30.19,NNE,32,2.0,7.0,66,0.00,,,0.00,weatherlink.com 1.10,2013-09-27 17:41:00,
2013-09-27 13:57:00,68.9,55.0,30.18,NNE,32,4.0,7.0,61,0.00,,,0.00,weatherlink.com 1.10,2013-09-27 17:57:00,
2013-09-27 14:12:00,68.6,55.0,30.18,ENE,76,1.0,6.0,63,0.00,,,0.00,weatherlink.com 1.10,2013-09-27 18:12:00,
2013-09-27 14:27:00,68.0,55.0,30.18,NNE,32,2.0,6.0,63,0.00,,,0.00,weatherlink.com 1.10,2013-09-27 18:27:00,
2013-09-27 14:42:00,69.6,55.0,30.17,WSW,253,0.0,3.0,61,0.00,,,0.00,weatherlink.com 1.10,2013-09-27 18:42:00,
2013-09-27 14:57:00,69.7,55.0,30.17,ESE,119,1.0,6.0,60,0.00,,,0.00,weatherlink.com 1.10,2013-09-27 18:57:00,
2013-09-27 15:12:00,68.4,56.0,30.17,NNE,33,0.0,3.0,64,0.00,,,0.00,weatherlink.com 1.10,2013-09-27 19:12:00,
2013-09-27 15:27:00,68.3,55.0,30.17,North,9,3.0,4.0,63,0.00,,,0.00,weatherlink.com 1.10,2013-09-27 19:27:00,
2013-09-27 15:42:00,68.8,56.0,30.17,ENE,57,2.0,4.0,65,0.00,,,0.00,weatherlink.com 1.10,2013-09-27 19:42:00,
2013-09-27 15:57:00,69.5,55.0,30.17,ESE,122,1.0,6.0,60,0.00,,,0.00,weatherlink.com 1.10,2013-09-27 19:57:00,
2013-09-27 16:12:00,69.3,55.0,30.17,NE,44,1.0,4.0,60,0.00,,,0.00,weatherlink.com 1.10,2013-09-27 20:12:00,
2013-09-27 16:27:00,68.6,54.0,30.17,NE,41,2.0,6.0,60,0.00,,,0.00,weatherlink.com 1.10,2013-09-27 20:27:00,
2013-09-27 16:42:00,68.0,54.0,30.17,NE,41,3.0,3.0,62,0.00,,,0.00,weatherlink.com 1.10,2013-09-27 20:42:00,
2013-09-27 16:57:00,67.7,54.0,30.17,NE,39,3.0,3.0,62,0.00,,,0.00,weatherlink.com 1.10,2013-09-27 20:57:00,
2013-09-27 17:12:00,67.1,55.0,30.17,North,360,1.0,3.0,66,0.00,,,0.00,weatherlink.com 1.10,2013-09-27 21:12:00,
2013-09-27 17:27:00,66.1,55.0,30.17,NE,43,0.0,3.0,67,0.00,,,0.00,weatherlink.com 1.10,2013-09-27 21:27:00,
2013-09-27 17:42:00,64.3,57.0,30.18,NE,42,0.0,0.0,76,0.00,,,0.00,weatherlink.com 1.10,2013-09-27 21:42:00,
2013-09-27 17:57:00,62.0,55.0,30.17,NE,43,0.0,0.0,79,0.00,,,0.00,weatherlink.com 1.10,2013-09-27 21:57:00,
2013-09-27 18:12:00,60.2,56.0,30.18,NE,43,0.0,0.0,85,0.00,,,0.00,weatherlink.com 1.10,2013-09-27 22:12:00,
2013-09-27 18:27:00,58.9,56.0,30.18,NE,43,0.0,0.0,89,0.00,,,0.00,weatherlink.com 1.10,2013-09-27 22:27:00,
2013-09-27 18:42:00,57.9,55.0,30.18,NE,43,0.0,0.0,91,0.00,,,0.00,weatherlink.com 1.10,2013-09-27 22:42:00,
2013-09-27 18:57:00,56.7,55.0,30.18,NE,43,0.0,0.0,93,0.00,,,0.00,weatherlink.com 1.10,2013-09-27 22:57:00,
2013-09-27 19:12:00,55.7,54.0,30.18,NE,43,0.0,0.0,94,0.00,,,0.00,weatherlink.com 1.10,2013-09-27 23:12:00,
2013-09-27 19:27:00,55.0,54.0,30.19,NE,43,0.0,0.0,95,0.00,,,0.00,weatherlink.com 1.10,2013-09-27 23:27:00,
2013-09-27 19:42:00,54.2,53.0,30.20,NE,43,0.0,0.0,95,0.00,,,0.00,weatherlink.com 1.10,2013-09-27 23:42:00,
2013-09-27 19:57:00,53.5,52.0,30.20,NE,43,0.0,0.0,95,0.00,,,0.00,weatherlink.com 1.10,2013-09-27 23:57:00,
2013-09-27 20:12:00,52.7,52.0,30.20,NE,43,0.0,0.0,96,0.00,,,0.00,weatherlink.com 1.10,2013-09-28 00:12:00,
2013-09-27 20:27:00,52.3,51.0,30.20,NE,42,0.0,1.0,96,0.00,,,0.00,weatherlink.com 1.10,2013-09-28 00:27:00,
2013-09-27 20:42:00,51.7,51.0,30.21,NE,43,0.0,0.0,96,0.00,,,0.00,weatherlink.com 1.10,2013-09-28 00:42:00,
2013-09-27 20:57:00,50.9,50.0,30.21,NE,43,0.0,0.0,96,0.00,,,0.00,weatherlink.com 1.10,2013-09-28 00:57:00,
2013-09-27 21:12:00,50.3,49.0,30.21,NE,43,0.0,0.0,96,0.00,,,0.00,weatherlink.com 1.10,2013-09-28 01:12:00,
2013-09-27 21:27:00,49.9,49.0,30.22,NE,43,0.0,0.0,97,0.00,,,0.00,weatherlink.com 1.10,2013-09-28 01:27:00,
2013-09-27 21:42:00,49.7,49.0,30.22,NE,43,0.0,0.0,97,0.00,,,0.00,weatherlink.com 1.10,2013-09-28 01:42:00,
2013-09-27 21:57:00,49.3,49.0,30.22,NE,43,0.0,0.0,97,0.00,,,0.00,weatherlink.com 1.10,2013-09-28 01:57:00,
2013-09-27 22:12:00,48.9,48.0,30.22,NE,43,0.0,0.0,97,0.00,,,0.00,weatherlink.com 1.10,2013-09-28 02:12:00,
2013-09-27 22:27:00,48.7,48.0,30.23,NE,43,0.0,0.0,97,0.00,,,0.00,weatherlink.com 1.10,2013-09-28 02:27:00,
2013-09-27 22:42:00,48.2,47.0,30.23,NE,43,0.0,0.0,97,0.00,,,0.00,weatherlink.com 1.10,2013-09-28 02:42:00,
2013-09-27 22:57:00,47.9,47.0,30.23,NE,42,0.0,0.0,97,0.00,,,0.00,weatherlink.com 1.10,2013-09-28 02:57:00,
2013-09-27 23:12:00,47.5,47.0,30.23,NE,42,0.0,0.0,97,0.00,,,0.00,weatherlink.com 1.10,2013-09-28 03:12:00,
2013-09-27 23:27:00,47.3,47.0,30.23,NE,43,0.0,0.0,97,0.00,,,0.00,weatherlink.com 1.10,2013-09-28 03:27:00,
2013-09-27 23:43:00,46.9,46.0,30.24,NE,43,0.0,0.0,97,0.00,,,0.00,weatherlink.com 1.10,2013-09-28 03:43:00,
2013-09-27 23:58:00,46.7,46.0,30.24,NE,43,0.0,1.0,97,0.00,,,0.00,weatherlink.com 1.10,2013-09-28 03:58:00,